createdAt,value
2023-03-25T00:03:50.623Z,11.90
2023-03-25T00:08:53.771Z,12.80
2023-03-25T00:13:56.409Z,13.50
2023-03-25T00:19:02.141Z,13.10
2023-03-25T00:24:04.845Z,13.40
2023-03-25T00:29:07.510Z,13.30
2023-03-25T00:34:14.269Z,12.70
2023-03-25T00:39:16.944Z,12.10
2023-03-25T00:44:19.622Z,11.70
2023-03-25T00:49:25.191Z,11.60
2023-03-25T00:54:27.756Z,11.70
2023-03-25T00:59:30.389Z,11.60
2023-03-25T01:04:39.463Z,11.40
2023-03-25T01:09:46.863Z,10.50
2023-03-25T01:14:49.670Z,10.00
2023-03-25T01:19:52.168Z,9.50
2023-03-25T01:24:54.624Z,9.20
2023-03-25T01:35:00.490Z,8.80
2023-03-25T01:40:05.529Z,8.60
2023-03-25T01:45:30.119Z,8.30
2023-03-25T01:50:34.649Z,8.10
2023-03-25T01:55:38.695Z,7.90
2023-03-25T02:00:46.104Z,7.80
2023-03-25T02:06:03.644Z,7.80
2023-03-25T02:11:07.345Z,7.90
2023-03-25T02:16:34.587Z,7.90
2023-03-25T02:22:07.574Z,7.70
2023-03-25T02:27:27.917Z,7.60
2023-03-25T02:32:49.141Z,7.60
2023-03-25T02:38:06.465Z,7.50
2023-03-25T02:43:27.560Z,7.30
2023-03-25T02:48:39.723Z,7.10
2023-03-25T02:53:46.919Z,7.10
2023-03-25T02:58:50.511Z,7.00
2023-03-25T03:03:54.421Z,6.90
2023-03-25T03:09:20.006Z,7.30
2023-03-25T03:14:37.535Z,8.00
2023-03-25T03:19:52.112Z,9.20
2023-03-25T03:25:22.882Z,8.50
2023-03-25T03:30:48.776Z,8.30
2023-03-25T03:35:57.738Z,7.90
2023-03-25T03:41:06.481Z,7.60
2023-03-25T03:46:27.162Z,7.60
2023-03-25T03:51:40.449Z,8.10
2023-03-25T03:56:53.697Z,8.50
2023-03-25T04:01:59.844Z,8.00
2023-03-25T04:07:22.626Z,7.30
2023-03-25T04:12:33.249Z,7.20
2023-03-25T04:17:35.860Z,7.00
2023-03-25T04:22:38.607Z,7.00
2023-03-25T04:27:41.332Z,6.90
2023-03-25T04:32:47.102Z,6.80
2023-03-25T04:37:49.574Z,6.60
2023-03-25T04:42:53.404Z,6.70
2023-03-25T04:47:56.007Z,6.40
2023-03-25T04:53:00.454Z,6.40
2023-03-25T04:58:03.004Z,6.50
2023-03-25T05:03:05.655Z,6.70
2023-03-25T05:08:08.559Z,6.90
2023-03-25T05:13:11.257Z,6.90
2023-03-25T05:18:16.179Z,7.00
2023-03-25T05:23:18.926Z,7.00
2023-03-25T05:28:21.392Z,7.10
2023-03-25T05:33:24.026Z,7.20
2023-03-25T05:38:26.649Z,7.20
2023-03-25T05:43:29.194Z,7.30
2023-03-25T05:48:33.244Z,7.50
2023-03-25T05:53:35.806Z,7.80
2023-03-25T05:58:39.422Z,8.30
2023-03-25T06:03:43.271Z,9.20
2023-03-25T06:08:50.182Z,10.30
2023-03-25T06:19:02.560Z,13.00
2023-03-25T06:24:09.037Z,13.00
2023-03-25T06:29:14.462Z,12.70
2023-03-25T06:34:17.069Z,13.00
2023-03-25T06:39:20.020Z,13.00
2023-03-25T06:44:26.269Z,13.00
2023-03-25T06:49:40.812Z,12.80
2023-03-25T06:54:43.322Z,13.00
2023-03-25T06:59:47.458Z,13.10
2023-03-25T07:04:50.289Z,13.50
2023-03-25T07:09:55.219Z,13.60
2023-03-25T07:14:58.203Z,13.80
2023-03-25T07:25:04.705Z,14.00
2023-03-25T07:30:08.126Z,14.30
2023-03-25T07:35:10.735Z,13.90
2023-03-25T07:40:13.616Z,14.40
2023-03-25T07:45:16.235Z,14.40
2023-03-25T07:50:25.049Z,15.10
2023-03-25T07:55:28.159Z,15.20
2023-03-25T08:00:30.808Z,15.00
2023-03-25T08:05:33.354Z,14.60
2023-03-25T08:10:35.956Z,14.60
2023-03-25T08:15:39.302Z,14.70
2023-03-25T08:20:42.041Z,15.10
2023-03-25T08:30:49.408Z,16.40
2023-03-25T08:35:54.056Z,17.00
2023-03-25T08:45:59.725Z,18.10
2023-03-25T08:51:02.651Z,18.40
2023-03-25T08:56:05.639Z,17.80
2023-03-25T09:01:08.172Z,17.90
2023-03-25T09:06:10.823Z,18.40
2023-03-25T09:11:18.059Z,18.60
2023-03-25T09:16:24.685Z,19.00
2023-03-25T11:34:24.172Z,14.20
2023-03-25T11:39:35.140Z,14.00
2023-03-25T11:44:37.878Z,13.00
2023-03-25T11:49:41.668Z,12.70
2023-03-25T11:54:45.474Z,11.90
2023-03-25T11:59:49.861Z,11.20
2023-03-25T12:05:02.671Z,11.30
2023-03-25T12:10:06.580Z,12.30
2023-03-25T12:15:45.749Z,13.20
2023-03-25T12:20:54.242Z,13.60
2023-03-25T12:26:10.866Z,13.60
2023-03-25T12:31:37.127Z,13.80
2023-03-25T12:37:01.914Z,14.80
2023-03-25T12:42:18.673Z,16.00
2023-03-25T12:47:29.163Z,17.00
2023-03-25T12:52:37.542Z,17.60
2023-03-25T12:57:42.847Z,17.80
2023-03-25T13:03:12.685Z,15.70
2023-03-25T13:08:24.291Z,14.00
2023-03-25T13:13:30.040Z,14.10
2023-03-25T13:18:54.139Z,15.50
2023-03-25T13:24:02.076Z,16.70
2023-03-25T13:29:10.456Z,17.40
2023-03-25T13:34:26.225Z,17.60
2023-03-25T13:39:47.438Z,17.80
2023-03-25T13:44:54.738Z,18.10
2023-03-25T13:50:14.602Z,18.30
2023-03-25T13:55:22.835Z,17.90
2023-03-25T14:01:03.359Z,17.60
2023-03-25T14:06:15.123Z,17.80
2023-03-25T14:11:17.597Z,17.80
2023-03-25T14:16:28.000Z,17.60
2023-03-25T14:21:42.016Z,17.50
2023-03-25T14:26:50.005Z,17.10
2023-03-25T14:32:22.022Z,17.20
2023-03-25T14:37:28.765Z,17.20
2023-03-25T14:42:59.679Z,16.80
2023-03-25T14:48:19.498Z,16.80
2023-03-25T14:53:28.478Z,16.70
2023-03-25T14:58:31.783Z,15.80
2023-03-25T15:03:37.866Z,13.80
2023-03-25T15:08:45.074Z,12.80
2023-03-25T15:13:53.367Z,12.50
2023-03-25T15:18:56.059Z,12.20
2023-03-25T15:24:07.044Z,12.00
2023-03-25T15:29:48.847Z,11.70
2023-03-25T15:35:37.111Z,11.60
2023-03-25T15:41:17.384Z,11.40
2023-03-25T15:46:49.914Z,11.20
2023-03-25T15:52:11.684Z,11.00
2023-03-25T15:57:20.237Z,11.00
2023-03-25T16:02:40.666Z,11.20
2023-03-25T16:07:44.226Z,12.00
2023-03-25T16:12:49.093Z,12.70
2023-03-25T16:17:52.632Z,12.90
2023-03-25T16:22:57.892Z,12.40
2023-03-25T16:28:02.606Z,12.60
2023-03-25T16:33:14.010Z,12.30
2023-03-25T16:38:20.329Z,12.10
2023-03-25T16:43:24.657Z,12.10
2023-03-25T16:48:31.425Z,12.00
2023-03-25T16:53:39.966Z,11.70
2023-03-25T16:59:00.192Z,11.50
2023-03-25T17:04:11.584Z,11.40
2023-03-25T17:09:20.920Z,11.40
2023-03-25T17:14:29.846Z,11.30
2023-03-25T17:19:32.555Z,11.60
2023-03-25T17:24:44.260Z,13.00
2023-03-25T17:30:00.756Z,14.10
2023-03-25T17:35:25.575Z,14.50
2023-03-25T17:40:28.787Z,14.80
2023-03-25T17:45:31.375Z,14.10
2023-03-25T17:50:33.832Z,13.60
2023-03-25T17:55:37.202Z,12.40
2023-03-25T18:00:40.608Z,12.20
2023-03-25T18:05:43.363Z,12.10
2023-03-25T18:10:46.212Z,12.70
2023-03-25T18:15:49.154Z,12.80
2023-03-25T18:20:53.261Z,13.80
2023-03-25T18:25:56.884Z,12.50
2023-03-25T18:30:59.664Z,11.60
2023-03-25T18:36:02.358Z,11.40
2023-03-25T18:41:05.424Z,11.70
2023-03-25T18:46:13.115Z,11.10
2023-03-25T18:51:17.852Z,10.40
2023-03-25T18:56:20.759Z,9.80
2023-03-25T19:06:30.858Z,16.40
2023-03-25T19:11:35.745Z,16.40
2023-03-25T19:16:38.408Z,17.70
2023-03-25T19:21:42.221Z,17.80
2023-03-25T19:26:44.789Z,16.70
2023-03-25T19:46:56.119Z,9.10
2023-03-25T19:51:58.599Z,8.40
2023-03-25T20:02:04.474Z,7.20
2023-03-25T20:07:07.150Z,6.80
2023-03-25T20:12:09.894Z,6.80
2023-03-25T20:17:12.478Z,6.90
2023-03-25T20:27:22.979Z,6.70
2023-03-25T20:32:39.324Z,6.50
2023-03-25T20:37:44.607Z,6.20
2023-03-25T20:42:48.929Z,6.00
2023-03-25T20:47:52.109Z,6.00
2023-03-25T20:52:54.767Z,6.40
2023-03-25T20:57:57.251Z,7.80
2023-03-25T21:02:59.913Z,9.30
2023-03-25T21:08:02.834Z,9.90
2023-03-25T21:13:05.387Z,11.20
2023-03-25T21:18:09.164Z,11.70
2023-03-25T21:23:11.827Z,12.30
2023-03-25T21:28:14.415Z,12.10
2023-03-25T21:38:28.832Z,13.40
2023-03-25T21:43:33.502Z,13.10
2023-03-25T21:48:40.148Z,12.40
2023-03-25T21:53:45.344Z,12.20
2023-03-25T21:58:49.004Z,11.60
2023-03-25T22:03:55.415Z,11.30
2023-03-25T22:09:11.546Z,11.20
2023-03-25T22:14:14.165Z,11.10
2023-03-25T22:19:16.905Z,12.20
2023-03-25T22:24:19.457Z,12.00
2023-03-25T22:29:22.019Z,12.10
2023-03-25T22:34:24.696Z,12.20
2023-03-25T22:39:28.386Z,12.00
2023-03-25T22:44:31.200Z,12.20
2023-03-25T22:49:33.717Z,11.90
2023-03-25T22:54:36.403Z,11.50
2023-03-25T22:59:39.275Z,11.30
2023-03-25T23:04:41.738Z,11.40
2023-03-25T23:09:45.053Z,11.20
2023-03-25T23:14:54.483Z,11.80
2023-03-25T23:19:57.165Z,11.70
2023-03-25T23:24:59.878Z,11.90
2023-03-25T23:30:05.106Z,12.40
2023-03-25T23:40:12.562Z,14.80
2023-03-25T23:45:15.701Z,15.00
2023-03-25T23:50:19.390Z,15.50
2023-03-25T23:55:23.495Z,15.40
